Time;durP1;ratioP1;P1;durP2;ratioP2;P2;SDS_P1;SDS_P2;PMS_P1;PMS_P2;Temp;Humidity;BMP_temperature;BMP_pressure;BME280_temperature;BME280_humidity;BME280_pressure;Samples;Min_cycle;Max_cycle;Signal;HPM_P1;HPM_P2
2022/02/13 00:01:13;;;;;;;2.27;2.03;;;2.10;77.20;;;;;;4999203;28;20184;-92
2022/02/13 00:03:39;;;;;;;4.53;3.00;;;2.00;77.20;;;;;;4982583;28;20209;-92
2022/02/13 00:06:05;;;;;;;3.27;2.40;;;2.10;77.30;;;;;;4981367;28;20188;-92
2022/02/13 00:08:36;;;;;;;5.27;2.50;;;2.00;78.10;;;;;;4982153;28;20181;-92
2022/02/13 00:11:02;;;;;;;2.50;2.27;;;2.00;78.10;;;;;;4985298;28;20662;-92
2022/02/13 00:13:30;;;;;;;2.90;2.37;;;2.00;78.20;;;;;;4984661;28;20246;-93
2022/02/13 00:15:55;;;;;;;3.87;2.90;;;2.00;77.90;;;;;;4983646;28;20189;-92
2022/02/13 00:18:21;;;;;;;6.10;3.90;;;1.90;78.60;;;;;;4984666;28;20179;-93
2022/02/13 00:20:50;;;;;;;6.93;4.83;;;2.10;78.20;;;;;;4984116;28;20344;-93
2022/02/13 00:23:15;;;;;;;5.43;2.83;;;1.90;78.60;;;;;;4983881;28;20196;-93
2022/02/13 00:25:44;;;;;;;3.07;2.77;;;1.90;78.60;;;;;;4988048;28;20545;-92
2022/02/13 00:28:13;;;;;;;5.93;3.20;;;2.00;77.80;;;;;;4984640;28;20306;-93
2022/02/13 00:30:39;;;;;;;6.50;3.03;;;2.00;77.90;;;;;;4982722;28;20186;-92
2022/02/13 00:33:04;;;;;;;5.07;3.23;;;2.00;78.10;;;;;;4979997;28;20662;-93
2022/02/13 00:35:30;;;;;;;4.50;3.50;;;1.90;78.80;;;;;;4979886;28;20189;-92
2022/02/13 00:37:56;;;;;;;3.40;2.67;;;1.90;78.70;;;;;;4981459;28;20177;-93
2022/02/13 00:40:22;;;;;;;8.07;4.10;;;2.00;77.90;;;;;;4980724;28;20216;-92
2022/02/13 00:42:51;;;;;;;5.53;2.90;;;1.90;78.30;;;;;;4980100;28;20740;-92
2022/02/13 00:45:17;;;;;;;3.53;2.93;;;1.90;78.10;;;;;;4980985;28;20695;-92
2022/02/13 00:47:43;;;;;;;5.27;3.27;;;1.90;78.10;;;;;;4981199;28;20206;-92
2022/02/13 00:50:08;;;;;;;3.60;2.60;;;1.90;78.30;;;;;;4981266;28;20191;-93
2022/02/13 00:52:34;;;;;;;7.63;2.73;;;1.90;78.40;;;;;;4981170;28;20201;-92
2022/02/13 00:55:00;;;;;;;2.60;2.40;;;1.90;78.50;;;;;;4997683;28;20209;-92
2022/02/13 00:57:27;;;;;;;6.47;3.17;;;1.90;78.40;;;;;;4981611;28;20181;-92
2022/02/13 00:59:56;;;;;;;6.10;2.93;;;1.90;78.40;;;;;;4980292;28;20187;-92
2022/02/13 01:02:21;;;;;;;8.97;4.47;;;2.00;78.10;;;;;;4983681;28;20208;-92
2022/02/13 01:04:47;;;;;;;6.40;3.30;;;2.00;78.20;;;;;;4998560;28;20177;-92
2022/02/13 01:07:29;;;;;;;8.07;4.53;;;2.10;77.90;;;;;;4982158;28;20234;-93
2022/02/13 01:10:17;;;;;;;6.13;3.27;;;2.00;78.10;;;;;;4981852;28;20237;-92
2022/02/13 01:13:12;;;;;;;5.43;2.77;;;1.90;78.50;;;;;;5002849;28;20295;-93
2022/02/13 01:15:37;;;;;;;3.77;3.40;;;2.00;78.20;;;;;;4972763;28;20750;-92
2022/02/13 01:18:10;;;;;;;6.37;2.83;;;1.90;78.90;;;;;;4984655;28;20208;-93
2022/02/13 01:20:38;;;;;;;8.93;3.23;;;1.90;78.40;;;;;;4997446;28;20187;-92
2022/02/13 01:23:26;;;;;;;5.03;3.30;;;1.90;78.30;;;;;;4982400;28;20295;-92
2022/02/13 01:26:19;;;;;;;6.33;3.00;;;1.90;78.30;;;;;;4984829;28;20273;-92
2022/02/13 01:29:00;;;;;;;7.43;3.83;;;1.90;78.40;;;;;;4971012;28;20252;-92
2022/02/13 01:31:41;;;;;;;10.37;4.43;;;1.80;78.60;;;;;;4982069;28;20604;-93
2022/02/13 01:34:07;;;;;;;5.23;3.70;;;1.80;78.80;;;;;;5002364;28;20162;-93
2022/02/13 01:36:33;;;;;;;3.53;3.03;;;1.80;78.80;;;;;;4986972;28;20725;-92
2022/02/13 01:39:00;;;;;;;4.90;4.03;;;1.80;79.10;;;;;;4986921;28;20213;-93
2022/02/13 01:41:26;;;;;;;6.50;3.50;;;1.70;79.60;;;;;;4986608;28;20200;-93
2022/02/13 01:44:00;;;;;;;3.70;2.80;;;1.80;78.80;;;;;;4985893;28;20744;-92
2022/02/13 01:46:30;;;;;;;5.67;3.50;;;1.80;78.90;;;;;;5006751;28;20185;-92
2022/02/13 01:48:55;;;;;;;7.40;4.13;;;1.70;78.90;;;;;;5003277;28;20180;-92
2022/02/13 01:51:23;;;;;;;7.87;4.00;;;1.70;79.10;;;;;;4985898;28;20280;-93
2022/02/13 01:53:52;;;;;;;3.70;2.57;;;1.60;79.70;;;;;;4985849;28;20177;-92
2022/02/13 01:56:21;;;;;;;6.20;3.17;;;1.60;79.50;;;;;;4985869;28;20182;-92
2022/02/13 01:58:49;;;;;;;7.57;3.03;;;1.60;79.70;;;;;;4987392;28;20196;-93
2022/02/13 02:01:15;;;;;;;6.80;4.30;;;1.60;79.40;;;;;;4988656;28;20185;-93
2022/02/13 02:03:41;;;;;;;5.47;3.30;;;1.60;79.30;;;;;;4986702;28;20194;-93
2022/02/13 02:06:06;;;;;;;6.63;4.23;;;1.70;79.20;;;;;;4985709;28;20194;-92
2022/02/13 02:08:32;;;;;;;4.37;3.40;;;1.70;79.20;;;;;;4987038;28;20192;-92
2022/02/13 02:10:58;;;;;;;6.57;4.20;;;1.60;79.40;;;;;;4986864;28;20266;-92
2022/02/13 02:13:23;;;;;;;7.17;4.10;;;1.60;79.70;;;;;;4986736;28;20677;-92
2022/02/13 02:15:52;;;;;;;7.03;3.53;;;1.60;79.80;;;;;;4986071;28;20180;-93
2022/02/13 02:18:17;;;;;;;10.17;4.87;;;1.50;79.80;;;;;;4989269;28;20204;-92
2022/02/13 02:20:54;;;;;;;7.30;4.17;;;1.60;79.50;;;;;;4987040;28;20191;-93
2022/02/13 02:23:20;;;;;;;4.90;3.03;;;1.70;79.30;;;;;;5004465;28;20611;-92
2022/02/13 02:25:54;;;;;;;9.13;4.63;;;1.60;79.40;;;;;;4986043;28;20248;-93
2022/02/13 02:28:20;;;;;;;7.40;4.10;;;1.50;79.50;;;;;;4987593;28;20231;-93
2022/02/13 02:30:49;;;;;;;5.13;3.63;;;1.60;79.50;;;;;;4985655;28;20186;-92
2022/02/13 02:33:15;;;;;;;9.97;4.10;;;1.50;79.90;;;;;;4987170;28;20210;-93
2022/02/13 02:35:48;;;;;;;8.60;3.93;;;1.50;79.90;;;;;;4987051;28;20185;-93
2022/02/13 02:38:20;;;;;;;3.20;2.77;;;1.50;80.10;;;;;;4988083;28;20247;-92
2022/02/13 02:40:48;;;;;;;8.17;4.37;;;1.60;79.70;;;;;;4987871;28;20236;-92
2022/02/13 02:43:13;;;;;;;6.53;4.60;;;1.60;79.50;;;;;;4987907;28;20226;-92
2022/02/13 02:45:39;;;;;;;5.43;4.23;;;1.60;79.60;;;;;;4988307;28;20243;-93
2022/02/13 02:48:07;;;;;;;5.87;3.33;;;1.50;79.60;;;;;;5004475;28;20673;-93
2022/02/13 02:50:37;;;;;;;3.43;3.10;;;1.50;79.80;;;;;;4986408;28;20216;-93
2022/02/13 02:53:04;;;;;;;3.60;2.73;;;1.60;79.30;;;;;;5001497;28;20210;-93
2022/02/13 02:55:33;;;;;;;5.40;3.40;;;1.50;79.90;;;;;;4987919;28;20179;-92
2022/02/13 02:57:58;;;;;;;3.77;2.80;;;1.50;79.70;;;;;;5004257;28;20181;-92
2022/02/13 03:00:24;;;;;;;6.03;3.60;;;1.50;79.60;;;;;;4987342;28;20567;-93
2022/02/13 03:02:50;;;;;;;4.40;3.57;;;1.50;79.80;;;;;;5003265;28;20223;-93
2022/02/13 03:05:15;;;;;;;4.53;3.57;;;1.50;79.40;;;;;;4987749;28;20248;-93
2022/02/13 03:07:41;;;;;;;5.67;3.70;;;1.50;79.40;;;;;;4986372;28;20207;-93
2022/02/13 03:10:10;;;;;;;9.87;4.53;;;1.50;79.60;;;;;;4987054;28;20213;-93
2022/02/13 03:12:38;;;;;;;7.57;3.70;;;1.50;79.30;;;;;;4986360;28;20247;-92
2022/02/13 03:15:05;;;;;;;3.30;3.00;;;1.60;79.30;;;;;;4987949;28;20176;-92
2022/02/13 03:17:30;;;;;;;7.90;3.33;;;1.60;79.00;;;;;;4986929;28;20188;-92
2022/02/13 03:20:03;;;;;;;6.77;3.70;;;1.50;79.20;;;;;;4987835;28;20185;-92
2022/02/13 03:22:29;;;;;;;9.30;3.87;;;1.70;78.30;;;;;;4986069;28;20207;-93
2022/02/13 03:25:00;;;;;;;6.13;3.53;;;1.60;78.80;;;;;;4985821;28;20189;-92
2022/02/13 03:27:29;;;;;;;7.03;5.10;;;1.50;79.30;;;;;;4986893;28;20220;-92
2022/02/13 03:29:54;;;;;;;4.47;3.93;;;1.60;78.90;;;;;;4985958;28;20559;-93
2022/02/13 03:32:21;;;;;;;10.47;3.57;;;1.60;78.90;;;;;;4986559;28;20234;-92
2022/02/13 03:34:47;;;;;;;8.60;4.83;;;1.50;78.90;;;;;;4985742;28;20186;-93
2022/02/13 03:37:13;;;;;;;6.90;3.50;;;1.50;79.10;;;;;;4985536;28;20654;-93
2022/02/13 03:39:39;;;;;;;6.93;5.03;;;1.50;79.30;;;;;;4985948;28;20267;-92
2022/02/13 03:42:05;;;;;;;5.00;3.70;;;1.50;79.30;;;;;;4987166;28;20209;-93
2022/02/13 03:44:31;;;;;;;10.77;4.50;;;1.50;79.00;;;;;;4985716;28;20211;-93
2022/02/13 03:46:56;;;;;;;9.63;3.57;;;1.50;79.10;;;;;;4986848;28;20217;-91
2022/02/13 03:49:29;;;;;;;6.00;3.97;;;1.50;78.70;;;;;;4982642;28;20188;-92
2022/02/13 03:51:55;;;;;;;4.67;3.17;;;1.50;78.80;;;;;;4985448;28;20689;-92
2022/02/13 03:54:30;;;;;;;8.40;5.27;;;1.50;79.10;;;;;;4985486;28;20217;-92
2022/02/13 03:56:55;;;;;;;6.70;3.87;;;1.40;79.30;;;;;;4985461;28;20260;-92
2022/02/13 03:59:21;;;;;;;9.20;3.10;;;1.50;78.90;;;;;;4985662;28;20190;-92
2022/02/13 04:01:46;;;;;;;8.20;3.27;;;1.50;79.10;;;;;;4985839;28;20200;-92
2022/02/13 04:04:12;;;;;;;4.97;3.67;;;1.50;79.10;;;;;;4985272;28;20278;-92
2022/02/13 04:06:38;;;;;;;6.70;3.23;;;1.40;79.70;;;;;;4985481;28;20227;-93
2022/02/13 04:09:03;;;;;;;5.57;4.47;;;1.40;79.80;;;;;;4985732;28;20659;-92
2022/02/13 04:11:29;;;;;;;9.90;3.73;;;1.40;79.60;;;;;;5000708;28;20207;-92
2022/02/13 04:13:54;;;;;;;7.37;3.27;;;1.30;79.70;;;;;;4985525;28;20180;-93
2022/02/13 04:16:23;;;;;;;7.30;4.27;;;1.30;79.50;;;;;;4986040;28;20560;-92
2022/02/13 04:18:49;;;;;;;7.03;4.07;;;1.40;79.40;;;;;;4987156;28;20180;-91
2022/02/13 04:21:15;;;;;;;7.23;4.33;;;1.40;79.20;;;;;;4985888;28;20604;-92
2022/02/13 04:23:44;;;;;;;4.10;2.93;;;1.40;79.40;;;;;;4987904;28;20273;-93
2022/02/13 04:26:10;;;;;;;10.80;4.83;;;1.40;79.10;;;;;;4987842;28;20182;-92
2022/02/13 04:28:35;;;;;;;5.87;3.60;;;1.40;79.30;;;;;;4985871;28;20242;-92
2022/02/13 04:31:01;;;;;;;9.73;4.20;;;1.30;79.50;;;;;;4984623;28;20178;-91
2022/02/13 04:33:33;;;;;;;10.23;4.97;;;1.30;79.70;;;;;;4984917;28;20196;-92
2022/02/13 04:36:01;;;;;;;8.60;3.50;;;1.30;79.40;;;;;;4985310;28;20168;-92
2022/02/13 04:38:27;;;;;;;9.90;4.80;;;1.40;79.00;;;;;;4985947;28;20183;-93
2022/02/13 04:40:53;;;;;;;8.00;3.87;;;1.30;79.10;;;;;;4985909;28;20188;-92
2022/02/13 04:43:18;;;;;;;6.23;4.00;;;1.30;79.30;;;;;;4987296;28;20251;-93
2022/02/13 04:45:44;;;;;;;6.50;4.50;;;1.30;79.80;;;;;;4985132;28;20182;-92
2022/02/13 04:48:09;;;;;;;8.37;3.67;;;1.30;80.00;;;;;;4986469;28;20731;-92
2022/02/13 04:50:38;;;;;;;4.60;4.20;;;1.30;79.90;;;;;;4987727;28;20184;-93
2022/02/13 04:53:03;;;;;;;10.40;5.23;;;1.30;79.60;;;;;;4987796;28;20230;-92
2022/02/13 04:55:29;;;;;;;9.77;4.97;;;1.30;79.30;;;;;;5005308;28;20176;-92
2022/02/13 04:57:57;;;;;;;8.77;3.67;;;1.30;79.60;;;;;;4989808;28;20624;-92
2022/02/13 05:00:23;;;;;;;7.70;3.17;;;1.30;79.80;;;;;;4989896;28;20274;-92
2022/02/13 05:02:51;;;;;;;6.23;4.47;;;1.30;79.90;;;;;;4991867;28;20203;-92
2022/02/13 05:05:19;;;;;;;5.43;4.03;;;1.30;79.50;;;;;;4990539;28;20182;-92
2022/02/13 05:07:45;;;;;;;16.40;6.47;;;1.40;78.90;;;;;;4990606;28;20262;-92
2022/02/13 05:10:11;;;;;;;10.23;5.57;;;1.30;79.90;;;;;;4993541;28;20188;-92
2022/02/13 05:12:40;;;;;;;4.30;3.90;;;1.30;79.20;;;;;;4991549;28;20207;-93
2022/02/13 05:15:07;;;;;;;7.03;4.43;;;1.50;78.60;;;;;;4992291;28;20175;-92
2022/02/13 05:17:44;;;;;;;4.80;3.83;;;1.40;79.10;;;;;;4989799;28;20259;-92
2022/02/13 05:20:12;;;;;;;6.63;3.97;;;1.40;79.00;;;;;;4989039;28;20172;-92
2022/02/13 05:22:37;;;;;;;11.13;4.27;;;1.30;79.30;;;;;;4989355;28;20290;-92
2022/02/13 05:25:16;;;;;;;13.10;4.80;;;1.30;79.30;;;;;;4990726;28;20216;-91
2022/02/13 05:27:42;;;;;;;11.57;5.23;;;1.30;79.00;;;;;;5005325;28;20199;-92
2022/02/13 05:30:08;;;;;;;4.27;3.37;;;1.30;79.60;;;;;;4989631;28;20182;-92
2022/02/13 05:32:34;;;;;;;6.03;5.20;;;1.20;79.70;;;;;;4986866;28;20680;-92
2022/02/13 05:35:07;;;;;;;9.37;5.83;;;1.30;79.60;;;;;;5004994;28;20263;-92
2022/02/13 05:37:33;;;;;;;10.13;6.30;;;1.20;79.50;;;;;;4988627;28;20231;-91
2022/02/13 05:39:59;;;;;;;8.13;4.97;;;1.20;79.60;;;;;;4991326;28;20178;-92
2022/02/13 05:42:26;;;;;;;8.37;5.40;;;1.20;79.50;;;;;;4989931;28;20229;-92
2022/02/13 05:44:55;;;;;;;6.87;4.10;;;1.20;79.50;;;;;;5006357;28;20174;-92
2022/02/13 05:47:21;;;;;;;7.17;4.37;;;1.20;79.80;;;;;;4988289;28;20227;-92
2022/02/13 05:49:47;;;;;;;9.77;5.47;;;1.20;79.60;;;;;;4989618;28;20183;-92
2022/02/13 05:52:12;;;;;;;9.40;5.27;;;1.20;79.40;;;;;;4989556;28;20204;-92
2022/02/13 05:54:38;;;;;;;7.33;4.47;;;1.30;78.90;;;;;;4988612;28;20194;-92
2022/02/13 05:57:04;;;;;;;7.80;4.70;;;1.20;79.40;;;;;;4989821;28;20196;-92
2022/02/13 05:59:37;;;;;;;6.67;4.97;;;1.20;79.10;;;;;;4988734;28;20190;-92
2022/02/13 06:02:03;;;;;;;6.67;4.70;;;1.20;79.50;;;;;;5005556;28;20195;-93
2022/02/13 06:04:32;;;;;;;15.97;5.93;;;1.20;79.40;;;;;;4987937;28;20193;-92
2022/02/13 06:06:57;;;;;;;9.30;4.60;;;1.20;79.00;;;;;;4988619;28;20545;-92
2022/02/13 06:09:23;;;;;;;6.47;4.63;;;1.20;79.10;;;;;;4986939;28;20217;-92
2022/02/13 06:11:49;;;;;;;9.47;5.93;;;1.30;79.10;;;;;;4985357;28;20209;-93
2022/02/13 06:14:19;;;;;;;13.13;6.17;;;1.10;79.60;;;;;;4987157;28;20176;-92
2022/02/13 06:16:44;;;;;;;7.20;4.77;;;1.20;79.20;;;;;;4987002;28;20545;-92
2022/02/13 06:19:10;;;;;;;13.83;6.70;;;1.20;79.00;;;;;;4986744;28;20182;-92
2022/02/13 06:21:39;;;;;;;11.60;6.27;;;1.10;79.50;;;;;;5002771;28;20274;-92
2022/02/13 06:24:05;;;;;;;11.13;6.33;;;1.00;79.60;;;;;;5002729;28;20206;-92
2022/02/13 06:26:35;;;;;;;10.60;5.43;;;1.00;79.60;;;;;;4986605;28;20204;-92
2022/02/13 06:29:02;;;;;;;10.40;5.60;;;1.00;80.00;;;;;;5004853;28;20198;-92
2022/02/13 06:31:31;;;;;;;10.17;5.13;;;1.00;79.80;;;;;;4989893;28;20199;-93
2022/02/13 06:33:59;;;;;;;7.53;5.17;;;1.00;79.10;;;;;;4989955;28;20193;-92
2022/02/13 06:36:25;;;;;;;6.20;4.90;;;1.00;79.40;;;;;;4993248;28;20192;-93
2022/02/13 06:38:51;;;;;;;6.97;4.60;;;1.00;79.30;;;;;;4992313;28;20199;-93
2022/02/13 06:41:16;;;;;;;7.67;4.77;;;1.00;79.40;;;;;;4992563;28;20191;-92
2022/02/13 06:43:42;;;;;;;6.77;4.80;;;1.00;79.40;;;;;;5007938;28;20190;-92
2022/02/13 06:46:13;;;;;;;11.50;5.93;;;0.90;79.80;;;;;;4991167;28;20642;-92
2022/02/13 06:48:40;;;;;;;9.43;5.10;;;1.00;79.00;;;;;;4993403;28;20176;-92
2022/02/13 06:51:10;;;;;;;14.33;6.17;;;0.90;79.30;;;;;;4993235;28;20179;-92
2022/02/13 06:53:38;;;;;;;10.23;7.17;;;1.00;79.10;;;;;;4995287;28;20179;-92
2022/02/13 06:56:07;;;;;;;10.80;6.50;;;0.90;78.90;;;;;;4993400;28;20208;-92
2022/02/13 06:58:33;;;;;;;10.27;5.73;;;0.90;79.10;;;;;;4995525;28;20230;-93
2022/02/13 07:01:00;;;;;;;6.60;5.17;;;1.00;79.00;;;;;;4992263;28;20187;-92
2022/02/13 07:03:26;;;;;;;8.43;5.47;;;1.00;78.80;;;;;;4994231;28;20304;-93
2022/02/13 07:05:54;;;;;;;6.07;4.83;;;1.00;78.50;;;;;;5007404;28;20171;-93
2022/02/13 07:08:22;;;;;;;11.47;6.10;;;1.10;78.00;;;;;;4993796;28;20323;-92
2022/02/13 07:10:48;;;;;;;7.20;6.03;;;1.10;78.00;;;;;;4993652;28;20243;-93
2022/02/13 07:13:14;;;;;;;8.77;5.03;;;1.10;78.10;;;;;;4993505;28;20201;-92
2022/02/13 07:15:42;;;;;;;10.63;4.10;;;1.10;78.20;;;;;;4992486;28;20193;-93
2022/02/13 07:18:10;;;;;;;9.70;5.53;;;1.10;78.00;;;;;;4994127;28;20191;-92
2022/02/13 07:20:42;;;;;;;11.80;5.60;;;1.10;78.40;;;;;;4995311;28;20175;-92
2022/02/13 07:23:10;;;;;;;14.73;6.60;;;1.00;78.20;;;;;;4992811;28;20196;-92
2022/02/13 07:25:39;;;;;;;6.57;3.97;;;1.10;78.20;;;;;;4994198;28;20191;-92
2022/02/13 07:28:58;;;;;;;7.13;5.17;;;1.10;78.20;;;;;;4993589;28;20221;-93
2022/02/13 07:30:50;;;;;;;7.60;4.70;;;1.20;77.80;;;;;;5009640;28;20194;-92
2022/02/13 07:33:22;;;;;;;10.67;4.93;;;1.10;78.10;;;;;;5010246;28;20227;-93
2022/02/13 07:35:50;;;;;;;5.33;4.33;;;1.20;77.20;;;;;;5010614;28;20197;-93
2022/02/13 07:38:21;;;;;;;9.13;4.93;;;1.20;77.50;;;;;;4992468;28;20213;-93
2022/02/13 07:40:47;;;;;;;6.33;5.00;;;1.20;77.80;;;;;;4992370;28;20218;-92
2022/02/13 07:43:15;;;;;;;7.30;4.97;;;1.30;77.10;;;;;;4994778;28;20207;-92
2022/02/13 07:45:41;;;;;;;8.00;5.60;;;1.20;78.00;;;;;;5008324;28;20175;-93
2022/02/13 07:48:10;;;;;;;8.83;4.93;;;1.20;77.70;;;;;;4991163;28;20208;-92
2022/02/13 07:50:39;;;;;;;11.30;6.20;;;1.20;77.80;;;;;;4992741;28;20174;-92
2022/02/13 07:53:15;;;;;;;6.67;5.17;;;1.30;76.80;;;;;;4993982;28;20195;-93
2022/02/13 07:55:48;;;;;;;7.90;5.43;;;1.30;77.10;;;;;;4993887;28;20187;-92
2022/02/13 07:58:20;;;;;;;8.93;4.60;;;1.30;77.30;;;;;;4990048;28;20263;-92
2022/02/13 08:00:46;;;;;;;12.07;4.83;;;1.30;77.30;;;;;;4992987;28;20241;-93
2022/02/13 08:03:11;;;;;;;12.60;7.13;;;1.30;77.10;;;;;;4995968;28;20270;-93
2022/02/13 08:05:39;;;;;;;9.77;6.10;;;1.30;77.10;;;;;;4978036;28;20662;-93
2022/02/13 08:08:05;;;;;;;9.20;5.17;;;1.30;77.40;;;;;;4977576;28;20237;-92
2022/02/13 08:10:30;;;;;;;7.77;4.13;;;1.30;77.30;;;;;;4995855;28;20174;-91
2022/02/13 08:12:57;;;;;;;6.83;3.80;;;1.50;76.40;;;;;;4996584;28;20196;-91
2022/02/13 08:15:23;;;;;;;8.23;4.10;;;1.50;76.60;;;;;;4996722;28;20173;-92
2022/02/13 08:17:51;;;;;;;11.13;6.07;;;1.60;76.40;;;;;;4986177;28;20207;-92
2022/02/13 08:20:17;;;;;;;9.70;6.30;;;1.60;76.50;;;;;;4993165;28;20240;-92
2022/02/13 08:22:43;;;;;;;7.33;5.63;;;1.80;75.70;;;;;;4992804;28;20215;-93
2022/02/13 08:25:11;;;;;;;9.10;5.47;;;1.80;75.00;;;;;;4994455;28;20182;-92
2022/02/13 08:27:40;;;;;;;9.37;4.93;;;1.80;75.50;;;;;;4993741;28;20231;-93
2022/02/13 08:30:11;;;;;;;8.27;4.27;;;1.90;75.40;;;;;;4991499;28;20168;-93
2022/02/13 08:32:40;;;;;;;10.13;5.10;;;2.00;74.20;;;;;;4994503;28;20225;-92
2022/02/13 08:35:09;;;;;;;6.40;4.47;;;2.10;73.90;;;;;;4989814;28;20201;-92
2022/02/13 08:37:41;;;;;;;10.13;5.80;;;2.20;74.30;;;;;;5007339;28;20181;-93
2022/02/13 08:40:14;;;;;;;9.97;6.07;;;2.30;74.10;;;;;;4989005;28;20180;-92
2022/02/13 08:42:39;;;;;;;8.80;5.33;;;2.30;73.20;;;;;;4993775;28;20201;-93
2022/02/13 08:45:08;;;;;;;6.80;5.50;;;2.30;73.80;;;;;;4988448;28;20188;-92
2022/02/13 08:47:37;;;;;;;9.77;5.70;;;2.30;73.50;;;;;;4989504;28;20203;-92
2022/02/13 08:50:08;;;;;;;5.27;4.17;;;2.30;74.60;;;;;;4987699;28;20185;-93
2022/02/13 08:52:36;;;;;;;10.33;5.40;;;2.30;73.80;;;;;;4989362;28;20195;-91
2022/02/13 08:55:07;;;;;;;7.30;4.00;;;2.30;74.70;;;;;;4993477;28;20181;-93
2022/02/13 08:57:35;;;;;;;7.87;4.20;;;2.30;74.20;;;;;;4974613;28;20200;-92
2022/02/13 09:00:06;;;;;;;6.87;3.73;;;2.40;73.40;;;;;;4993712;28;20187;-93
2022/02/13 09:02:37;;;;;;;11.83;5.87;;;2.50;72.90;;;;;;4990724;28;20196;-93
2022/02/13 09:05:33;;;;;;;8.07;5.40;;;2.50;73.10;;;;;;4991934;28;20187;-92
2022/02/13 09:08:01;;;;;;;8.37;5.53;;;2.60;72.80;;;;;;4975036;28;20204;-93
2022/02/13 09:10:29;;;;;;;7.53;5.00;;;2.60;72.70;;;;;;5012762;28;20178;-93
2022/02/13 09:12:54;;;;;;;5.30;3.40;;;2.70;72.20;;;;;;4994335;28;20200;-93
2022/02/13 09:15:21;;;;;;;13.40;5.70;;;2.80;71.80;;;;;;4995411;28;20212;-93
2022/02/13 09:17:56;;;;;;;7.23;4.23;;;2.80;72.40;;;;;;4988091;28;20289;-92
2022/02/13 09:20:22;;;;;;;6.40;4.70;;;2.90;71.60;;;;;;5002840;28;20185;-92
2022/02/13 09:22:48;;;;;;;7.23;4.60;;;3.00;71.00;;;;;;5002982;28;20221;-92
2022/02/13 09:25:16;;;;;;;5.20;3.83;;;3.00;71.10;;;;;;4984449;28;20269;-93
2022/02/13 09:27:44;;;;;;;9.47;3.87;;;3.00;71.30;;;;;;4983903;28;20205;-92
2022/02/13 09:30:10;;;;;;;8.07;4.83;;;3.10;71.30;;;;;;4982732;28;20235;-93
2022/02/13 09:32:38;;;;;;;4.93;3.90;;;3.10;72.00;;;;;;4981968;28;20288;-92
2022/02/13 09:35:08;;;;;;;8.17;3.83;;;3.10;70.80;;;;;;5000883;28;20212;-92
2022/02/13 09:37:40;;;;;;;4.47;4.03;;;3.10;70.10;;;;;;4983633;28;20208;-92
2022/02/13 09:40:09;;;;;;;8.93;5.13;;;3.20;71.00;;;;;;4981288;28;20198;-92
2022/02/13 09:42:37;;;;;;;6.70;4.77;;;3.20;71.70;;;;;;4985008;28;20225;-93
2022/02/13 09:45:06;;;;;;;7.83;4.63;;;3.20;71.20;;;;;;4985401;28;20185;-92
2022/02/13 09:47:32;;;;;;;8.23;5.23;;;3.20;70.80;;;;;;4983885;28;20201;-92
2022/02/13 09:49:57;;;;;;;5.93;4.47;;;3.30;71.30;;;;;;4987911;28;20241;-92
2022/02/13 09:52:25;;;;;;;5.70;4.23;;;3.40;71.00;;;;;;4985036;28;20291;-92
2022/02/13 09:54:57;;;;;;;6.87;4.63;;;3.40;71.00;;;;;;4987859;28;20182;-92
2022/02/13 10:00:08;;;;;;;5.97;3.70;;;3.60;69.80;;;;;;5002580;28;20169;-92
2022/02/13 10:02:55;;;;;;;6.70;4.33;;;3.70;70.00;;;;;;4986605;28;20302;-93
2022/02/13 10:05:21;;;;;;;7.50;5.47;;;3.80;69.10;;;;;;4999724;28;20173;-91
2022/02/13 10:07:51;;;;;;;9.33;5.53;;;3.90;69.50;;;;;;4998012;28;20208;-92
2022/02/13 10:10:20;;;;;;;5.53;3.23;;;3.90;69.40;;;;;;4981476;28;20541;-92
2022/02/13 10:12:49;;;;;;;7.20;3.97;;;4.00;69.10;;;;;;4985775;28;20284;-93
2022/02/13 10:15:21;;;;;;;6.97;4.33;;;4.00;67.70;;;;;;4983649;28;20182;-93
2022/02/13 10:18:04;;;;;;;7.70;4.23;;;4.00;69.90;;;;;;4997294;28;20178;-92
2022/02/13 10:20:40;;;;;;;4.37;3.90;;;4.00;69.20;;;;;;4980430;28;20185;-91
2022/02/13 10:23:12;;;;;;;8.30;5.57;;;4.10;70.30;;;;;;4979939;28;20197;-92
2022/02/13 10:25:38;;;;;;;5.63;4.03;;;4.20;70.20;;;;;;4981444;28;20640;-92
2022/02/13 10:28:17;;;;;;;4.20;3.53;;;4.20;69.30;;;;;;4983429;28;20209;-92
2022/02/13 10:30:45;;;;;;;4.27;3.03;;;4.30;69.00;;;;;;4999612;28;20178;-92
2022/02/13 10:33:22;;;;;;;5.27;4.23;;;4.30;69.00;;;;;;4981182;28;20202;-89
2022/02/13 10:36:12;;;;;;;7.60;4.00;;;4.40;68.90;;;;;;4998678;28;20193;-91
2022/02/13 10:38:40;;;;;;;7.13;4.40;;;4.50;69.00;;;;;;4998582;28;20186;-91
2022/02/13 10:41:16;;;;;;;4.80;3.70;;;4.40;69.40;;;;;;4983641;28;20182;-92
2022/02/13 10:43:56;;;;;;;8.67;4.70;;;4.40;68.60;;;;;;5001720;28;20228;-92
2022/02/13 10:46:24;;;;;;;4.47;4.07;;;4.40;69.80;;;;;;4998434;28;20228;-92
2022/02/13 10:48:49;;;;;;;6.67;4.50;;;4.30;69.30;;;;;;4982050;28;20198;-91
2022/02/13 10:51:15;;;;;;;4.83;3.43;;;4.40;68.70;;;;;;4981618;28;20185;-92
2022/02/13 10:53:42;;;;;;;6.00;4.50;;;4.60;68.20;;;;;;4982462;28;20189;-92
2022/02/13 10:56:10;;;;;;;7.80;4.30;;;4.60;68.60;;;;;;4982849;28;20178;-92
2022/02/13 10:58:39;;;;;;;8.10;4.87;;;4.60;68.80;;;;;;5000008;28;20171;-92
2022/02/13 11:01:06;;;;;;;6.10;3.83;;;4.60;68.50;;;;;;5031865;23;20252;-91
2022/02/13 11:03:34;;;;;;;6.27;4.17;;;4.60;68.50;;;;;;5017703;28;20256;-91
2022/02/13 11:06:01;;;;;;;9.73;4.07;;;4.70;69.50;;;;;;5018648;28;20186;-86
2022/02/13 11:08:30;;;;;;;7.60;4.97;;;4.70;68.80;;;;;;5013636;28;20693;-86
2022/02/13 11:10:57;;;;;;;7.43;4.23;;;4.70;69.70;;;;;;5015240;28;20278;-88
2022/02/13 11:13:25;;;;;;;12.27;3.87;;;4.70;68.60;;;;;;5017437;28;20182;-87
2022/02/13 11:15:51;;;;;;;8.93;4.03;;;4.70;68.80;;;;;;5013451;28;20169;-87
2022/02/13 11:18:22;;;;;;;6.67;4.30;;;4.80;69.40;;;;;;5013616;28;20181;-87
2022/02/13 11:20:49;;;;;;;7.43;3.83;;;4.70;69.10;;;;;;5014757;28;20198;-87
2022/02/13 11:23:24;;;;;;;5.73;3.53;;;4.80;68.80;;;;;;5014816;28;20170;-88
2022/02/13 11:26:07;;;;;;;5.43;3.90;;;4.90;68.70;;;;;;5014735;28;20177;-87
2022/02/13 11:28:42;;;;;;;5.03;3.70;;;5.00;68.90;;;;;;5013416;28;20197;-87
2022/02/13 11:31:28;;;;;;;8.37;4.30;;;5.10;69.20;;;;;;5013457;28;20197;-87
2022/02/13 11:33:53;;;;;;;4.83;4.33;;;5.20;70.00;;;;;;5013789;28;20174;-87
2022/02/13 11:36:19;;;;;;;7.93;4.97;;;5.20;66.90;;;;;;5013331;28;20666;-87
2022/02/13 11:38:48;;;;;;;6.67;5.20;;;5.30;67.70;;;;;;5014847;28;20177;-88
2022/02/13 11:41:15;;;;;;;4.00;3.60;;;5.60;67.80;;;;;;5014976;28;20217;-87
2022/02/13 11:43:49;;;;;;;3.73;2.80;;;5.70;67.60;;;;;;5014704;28;20161;-87
2022/02/13 11:46:40;;;;;;;6.07;3.70;;;5.70;65.90;;;;;;5014348;28;20169;-87
2022/02/13 11:49:11;;;;;;;5.77;3.10;;;5.80;66.10;;;;;;5013406;28;20189;-87
2022/02/13 11:51:45;;;;;;;3.50;3.20;;;5.80;66.10;;;;;;5014463;28;20160;-87
2022/02/13 11:54:40;;;;;;;7.80;4.53;;;5.80;65.40;;;;;;5013064;28;20601;-87
2022/02/13 11:57:11;;;;;;;3.57;2.90;;;5.80;67.50;;;;;;5012994;28;20190;-87
2022/02/13 11:59:52;;;;;;;7.80;4.87;;;5.80;66.90;;;;;;5015915;28;20206;-87
2022/02/13 12:02:30;;;;;;;4.83;3.93;;;5.80;67.20;;;;;;5034319;28;20170;-91
2022/02/13 12:05:09;;;;;;;5.70;3.80;;;5.80;65.50;;;;;;5016515;28;20652;-88
2022/02/13 12:07:36;;;;;;;3.83;3.30;;;5.90;66.70;;;;;;5033947;28;20184;-87
2022/02/13 12:10:02;;;;;;;9.40;5.07;;;6.00;66.30;;;;;;5016191;28;20194;-87
2022/02/13 12:12:30;;;;;;;4.53;3.47;;;6.10;67.20;;;;;;5016228;28;20178;-87
2022/02/13 12:14:56;;;;;;;6.27;4.80;;;6.20;67.10;;;;;;5015902;28;20174;-87
2022/02/13 12:17:29;;;;;;;3.60;2.33;;;6.20;67.80;;;;;;5033729;28;20211;-87
2022/02/13 12:20:04;;;;;;;4.03;3.27;;;6.10;67.70;;;;;;5015889;28;20237;-87
2022/02/13 12:22:30;;;;;;;4.33;3.60;;;6.30;65.70;;;;;;5015809;28;20182;-87
2022/02/13 12:24:58;;;;;;;3.33;3.00;;;6.30;65.00;;;;;;5016020;28;20560;-87
2022/02/13 12:27:24;;;;;;;5.30;3.70;;;6.30;65.10;;;;;;5015686;28;20728;-87
2022/02/13 12:29:57;;;;;;;3.30;3.00;;;6.30;63.90;;;;;;5033333;28;20282;-87
2022/02/13 12:32:28;;;;;;;4.87;3.53;;;6.40;65.90;;;;;;5033371;28;20225;-87
2022/02/13 12:35:05;;;;;;;5.53;3.63;;;6.40;65.60;;;;;;5033667;28;20246;-87
2022/02/13 12:37:41;;;;;;;4.20;3.80;;;6.40;64.10;;;;;;5015776;28;20172;-87
2022/02/13 12:40:11;;;;;;;8.50;4.47;;;6.70;64.20;;;;;;5015630;28;20213;-86
2022/02/13 12:42:39;;;;;;;5.20;3.77;;;6.80;62.90;;;;;;5015624;28;20533;-86
2022/02/13 12:45:16;;;;;;;7.00;3.67;;;6.90;64.60;;;;;;5033411;28;20180;-87
2022/02/13 12:47:49;;;;;;;7.40;3.57;;;6.90;62.90;;;;;;5033390;28;20242;-87
2022/02/13 12:50:18;;;;;;;6.60;4.40;;;6.80;62.40;;;;;;5015643;28;20694;-87
2022/02/13 12:52:44;;;;;;;4.10;2.83;;;6.80;62.60;;;;;;5015715;28;20271;-87
2022/02/13 12:55:15;;;;;;;6.40;4.83;;;6.90;62.80;;;;;;5016075;28;20227;-87
2022/02/13 12:57:45;;;;;;;5.83;4.33;;;7.00;64.10;;;;;;5015607;28;20165;-86
2022/02/13 13:00:20;;;;;;;2.80;2.50;;;7.10;64.60;;;;;;5033337;28;20299;-87
2022/02/13 13:02:54;;;;;;;4.93;3.70;;;6.90;61.80;;;;;;5016075;28;20653;-86
2022/02/13 13:05:23;;;;;;;5.47;3.80;;;6.90;62.00;;;;;;5015404;28;20176;-87
2022/02/13 13:07:49;;;;;;;4.23;3.73;;;6.90;62.60;;;;;;5033355;28;20207;-86